»·PEaware :: N5002T KBUR-KBUR

N5002T :: KBUR-KBUR

FLIGHT INFORMATION

Flight Status: Arrived
Operator: Privately registered:
United States
More flights under this callsign
Pilot: Hunter M. (19355)
Aircraft: CESSNA 172 SKYHAWK
(C172)
More flights by this aircraft type
Origin: KBUR Bob Hope-Burbank
United States
Destination: KBUR Bob Hope-Burbank
United States
More flights between these airports :: More routes between these airports
Route: +SILEX
File this flight plan on PilotEdge
Remarks: Practice multiple approaches into KBUR VTF
Altitude:
(Current/Filed)
4,000ft
Speed:
(Current/Filed)
115kts
Departed: 03-Nov-18 03:53 PM
Arrived: 03-Nov-18 04:24 PM
Distance/Time
Traveled:
0nm/0:31
Distance/Time
To Go:
Arrived

Flight Plot

Page will automatically refresh every two minutes.


Map Options




Map Legend


Flown Route
Filed Route
Departure Airport
Arrival Airport
Navaid (VOR, NDB)
Fix

Horizontal Profiles

Position Reports

Time Latitude Longitude Heading Altitude Ground
Speed
03-Nov-18 15:37 34.195786 -118.366903 180 781ft 0kts
03-Nov-18 15:38 34.195785 -118.366903 180 781ft 0kts
03-Nov-18 15:39 34.195784 -118.366903 180 781ft 0kts
03-Nov-18 15:40 34.195783 -118.366903 180 781ft 0kts
03-Nov-18 15:41 34.195782 -118.366903 180 781ft 0kts
03-Nov-18 15:42 34.195781 -118.366903 180 781ft 0kts
03-Nov-18 15:43 34.195780 -118.366903 180 781ft 0kts
03-Nov-18 15:44 34.195780 -118.366903 180 781ft 0kts
03-Nov-18 15:45 34.195779 -118.366903 180 781ft 0kts
03-Nov-18 15:46 34.195778 -118.366903 180 781ft 0kts
03-Nov-18 15:47 34.195777 -118.366903 180 781ft 0kts
03-Nov-18 15:48 34.195776 -118.366903 180 781ft 0kts
03-Nov-18 15:49 34.195775 -118.366903 180 781ft 0kts
03-Nov-18 15:50 34.195983 -118.367278 339 781ft 0kts
03-Nov-18 15:51 34.196473 -118.366174 7 781ft 3kts
03-Nov-18 15:52 34.196837 -118.368923 333 781ft 9kts
03-Nov-18 15:53 34.197098 -118.368972 0 781ft 0kts
03-Nov-18 15:54 34.197459 -118.368971 0 781ft 7kts
03-Nov-18 15:55 34.197865 -118.367592 92 781ft 34kts
03-Nov-18 15:56 34.194398 -118.344974 132 1444ft 78kts
03-Nov-18 15:57 34.180603 -118.322453 127 2240ft 83kts
03-Nov-18 15:58 34.168336 -118.300224 126 2956ft 91kts
03-Nov-18 15:59 34.152702 -118.274483 126 3684ft 97kts
03-Nov-18 16:00 34.132566 -118.260312 248 4011ft 100kts
03-Nov-18 16:01 34.128631 -118.292178 265 4004ft 99kts
03-Nov-18 16:02 34.124926 -118.324975 265 4002ft 97kts
03-Nov-18 16:03 34.121360 -118.356891 264 4004ft 95kts
03-Nov-18 16:04 34.117568 -118.388922 264 4001ft 96kts
03-Nov-18 16:05 34.113682 -118.420763 264 4001ft 96kts
03-Nov-18 16:06 34.112922 -118.452919 274 4001ft 95kts
03-Nov-18 16:07 34.113843 -118.484901 274 4005ft 95kts
03-Nov-18 16:08 34.114673 -118.516772 274 4008ft 95kts
03-Nov-18 16:09 34.115441 -118.548725 274 4008ft 95kts
03-Nov-18 16:10 34.116128 -118.580466 274 4001ft 91kts
03-Nov-18 16:11 34.116575 -118.609551 273 4009ft 84kts
03-Nov-18 16:12 34.121153 -118.635499 320 4028ft 80kts
03-Nov-18 16:13 34.143655 -118.642602 344 4016ft 85kts
03-Nov-18 16:14 34.166930 -118.648475 344 4015ft 85kts
03-Nov-18 16:15 34.189686 -118.654285 344 4013ft 84kts
03-Nov-18 16:16 34.204350 -118.636820 86 3989ft 90kts
03-Nov-18 16:17 34.202353 -118.603290 84 3864ft 100kts
03-Nov-18 16:18 34.185471 -118.577285 120 3556ft 100kts
03-Nov-18 16:19 34.183539 -118.545947 55 2959ft 96kts
03-Nov-18 16:20 34.197739 -118.521226 74 2369ft 84kts
03-Nov-18 16:21 34.201093 -118.492197 87 2138ft 86kts
03-Nov-18 16:22 34.199207 -118.462527 95 2386ft 89kts
03-Nov-18 16:23 34.197155 -118.432594 86 2318ft 89kts
03-Nov-18 16:24 34.197889 -118.407680 85 1790ft 64kts
03-Nov-18 16:25 34.198428 -118.388037 90 1153ft 55kts
03-Nov-18 16:26 34.197833 -118.369855 90 836ft 52kts
03-Nov-18 16:27 34.196885 -118.364406 165 781ft 0kts
03-Nov-18 16:28 34.196684 -118.363987 300 781ft 0kts

Navigation Log

Ident Type
Flight plan parsing failed, navigation log unavailable